Time;durP1;ratioP1;P1;durP2;ratioP2;P2;SDS_P1;SDS_P2;PMS_P1;PMS_P2;Temp;Humidity;BMP_temperature;BMP_pressure;BME280_temperature;BME280_humidity;BME280_pressure;Samples;Min_cycle;Max_cycle;Signal;HPM_P1;HPM_P2
2023/04/30 00:00:45;;;;;;;6.60;3.50;;;;;;;;;;5025733;28;20500;-82
2023/04/30 00:03:11;;;;;;;8.38;3.40;;;;;;;;;;5032311;28;20431;-82
2023/04/30 00:05:38;;;;;;;9.18;3.17;;;;;;;;;;5031376;28;20913;-82
2023/04/30 00:08:05;;;;;;;5.10;2.90;;;;;;;;;;5032322;28;20406;-82
2023/04/30 00:10:31;;;;;;;10.98;3.90;;;;;;;;;;5031706;28;20415;-82
2023/04/30 00:12:59;;;;;;;7.63;4.10;;;;;;;;;;5031914;28;20494;-81
2023/04/30 00:15:25;;;;;;;6.65;4.22;;;;;;;;;;5031322;28;20782;-82
2023/04/30 00:17:52;;;;;;;7.82;4.00;;;;;;;;;;5031724;28;20435;-82
2023/04/30 00:20:18;;;;;;;9.20;4.82;;;;;;;;;;5031577;28;20411;-82
2023/04/30 00:22:44;;;;;;;8.85;4.30;;;;;;;;;;5031808;28;20431;-82
2023/04/30 00:25:11;;;;;;;8.18;4.20;;;;;;;;;;5031204;28;20893;-82
2023/04/30 00:27:37;;;;;;;7.88;4.35;;;;;;;;;;5020234;28;20411;-82
2023/04/30 00:30:07;;;;;;;9.00;4.53;;;;;;;;;;5031267;28;20407;-82
2023/04/30 00:32:33;;;;;;;8.60;4.30;;;;;;;;;;5033474;28;20426;-82
2023/04/30 00:34:59;;;;;;;10.17;4.40;;;;;;;;;;5035215;28;20802;-82
2023/04/30 00:37:25;;;;;;;9.35;4.55;;;;;;;;;;5035572;28;20410;-82
2023/04/30 00:39:52;;;;;;;10.27;4.15;;;;;;;;;;5035637;28;20415;-82
2023/04/30 00:42:18;;;;;;;7.80;4.50;;;;;;;;;;5035387;28;20430;-82
2023/04/30 00:44:44;;;;;;;7.97;4.40;;;;;;;;;;5035604;28;20429;-81
2023/04/30 00:47:12;;;;;;;8.23;4.68;;;;;;;;;;5035071;28;20916;-82
2023/04/30 00:49:40;;;;;;;9.73;4.13;;;;;;;;;;5034704;28;20510;-81
2023/04/30 00:52:07;;;;;;;8.40;3.88;;;;;;;;;;5034469;28;20423;-82
2023/04/30 00:54:33;;;;;;;8.90;3.85;;;;;;;;;;5035596;28;20415;-82
2023/04/30 00:57:01;;;;;;;8.63;4.13;;;;;;;;;;5032559;28;20414;-82
2023/04/30 00:59:28;;;;;;;11.43;3.60;;;;;;;;;;5027423;28;20841;-82
2023/04/30 01:01:55;;;;;;;11.02;4.40;;;;;;;;;;5034537;28;20947;-82
2023/04/30 01:04:23;;;;;;;6.95;3.80;;;;;;;;;;5033878;28;20485;-81
2023/04/30 01:06:49;;;;;;;6.88;4.05;;;;;;;;;;5034345;28;20422;-82
2023/04/30 01:09:16;;;;;;;7.70;3.70;;;;;;;;;;5034681;28;20422;-81
2023/04/30 01:11:48;;;;;;;10.18;4.10;;;;;;;;;;5026798;28;20913;-82
2023/04/30 01:14:21;;;;;;;6.93;3.90;;;;;;;;;;5019869;28;20487;-82
2023/04/30 01:16:51;;;;;;;7.57;4.10;;;;;;;;;;5031836;28;20841;-81
2023/04/30 01:19:27;;;;;;;12.65;4.63;;;;;;;;;;5033817;28;20418;-81
2023/04/30 01:21:56;;;;;;;7.65;3.60;;;;;;;;;;5034216;28;20430;-81
2023/04/30 01:24:29;;;;;;;3.50;2.95;;;;;;;;;;5034585;28;20927;-81
2023/04/30 01:27:06;;;;;;;7.97;3.60;;;;;;;;;;5032074;28;20419;-81
2023/04/30 01:29:34;;;;;;;9.13;4.03;;;;;;;;;;5034497;28;20762;-81
2023/04/30 01:32:01;;;;;;;9.30;4.18;;;;;;;;;;5032785;28;20434;-82
2023/04/30 01:34:27;;;;;;;5.18;3.70;;;;;;;;;;5032617;28;20415;-82
2023/04/30 01:37:02;;;;;;;8.70;3.65;;;;;;;;;;5034038;28;20939;-81
2023/04/30 01:39:34;;;;;;;6.90;4.20;;;;;;;;;;5034627;28;20426;-81
2023/04/30 01:42:05;;;;;;;7.07;4.18;;;;;;;;;;5034043;28;20459;-82
2023/04/30 01:44:46;;;;;;;9.88;4.57;;;;;;;;;;5032555;28;20433;-81
2023/04/30 01:47:20;;;;;;;8.37;4.30;;;;;;;;;;5030343;28;20415;-81
2023/04/30 01:49:51;;;;;;;10.57;4.47;;;;;;;;;;5024862;28;20469;-81
2023/04/30 01:52:19;;;;;;;7.55;4.15;;;;;;;;;;5033337;28;20415;-81
2023/04/30 01:54:48;;;;;;;6.60;3.70;;;;;;;;;;5033993;28;20415;-81
2023/04/30 01:57:17;;;;;;;8.80;4.00;;;;;;;;;;5030667;28;20949;-81
2023/04/30 01:59:44;;;;;;;6.00;4.10;;;;;;;;;;5033497;28;20931;-82
2023/04/30 02:02:10;;;;;;;7.78;4.40;;;;;;;;;;5033458;28;20415;-81
2023/04/30 02:04:38;;;;;;;8.95;4.40;;;;;;;;;;5024417;28;20429;-81
2023/04/30 02:07:04;;;;;;;9.07;4.50;;;;;;;;;;5027824;28;20426;-81
2023/04/30 02:09:31;;;;;;;8.68;4.35;;;;;;;;;;5032255;28;20415;-81
2023/04/30 02:11:57;;;;;;;7.85;4.13;;;;;;;;;;5030807;28;20415;-81
2023/04/30 02:14:23;;;;;;;9.25;4.53;;;;;;;;;;5033892;28;20415;-81
2023/04/30 02:16:50;;;;;;;5.72;3.90;;;;;;;;;;5032798;28;20415;-81
2023/04/30 02:19:16;;;;;;;7.67;4.40;;;;;;;;;;5033394;28;20494;-81
2023/04/30 02:21:44;;;;;;;5.13;4.00;;;;;;;;;;5033359;28;20418;-81
2023/04/30 02:24:10;;;;;;;8.05;4.60;;;;;;;;;;5033960;28;20422;-81
2023/04/30 02:26:37;;;;;;;7.25;4.32;;;;;;;;;;5026938;28;20421;-81
2023/04/30 02:29:03;;;;;;;11.73;4.70;;;;;;;;;;5027393;28;20442;-81
2023/04/30 02:31:29;;;;;;;6.45;4.13;;;;;;;;;;5021669;28;20954;-81
2023/04/30 02:33:56;;;;;;;8.80;4.77;;;;;;;;;;5019262;28;20422;-81
2023/04/30 02:36:22;;;;;;;6.50;3.90;;;;;;;;;;5033136;28;20426;-81
2023/04/30 02:38:50;;;;;;;8.52;4.72;;;;;;;;;;5033720;28;20411;-81
2023/04/30 02:41:16;;;;;;;6.22;4.40;;;;;;;;;;5032924;28;20422;-82
2023/04/30 02:43:43;;;;;;;9.57;4.30;;;;;;;;;;5030683;28;20427;-81
2023/04/30 02:46:09;;;;;;;8.13;4.50;;;;;;;;;;5027241;28;20415;-82
2023/04/30 02:48:35;;;;;;;7.75;4.25;;;;;;;;;;5032931;28;20415;-81
2023/04/30 02:51:03;;;;;;;6.50;4.22;;;;;;;;;;5032647;28;20412;-81
2023/04/30 02:53:29;;;;;;;6.40;4.40;;;;;;;;;;5016606;28;20903;-81
2023/04/30 02:55:58;;;;;;;5.07;4.30;;;;;;;;;;5032804;28;20419;-82
2023/04/30 02:58:24;;;;;;;6.93;4.80;;;;;;;;;;5033136;28;20411;-81
2023/04/30 03:00:50;;;;;;;8.07;4.78;;;;;;;;;;5031402;28;20782;-81
2023/04/30 03:03:16;;;;;;;9.30;4.60;;;;;;;;;;5025802;28;20422;-81
2023/04/30 03:05:44;;;;;;;7.50;4.50;;;;;;;;;;5031192;28;20415;-81
2023/04/30 03:08:10;;;;;;;8.45;4.60;;;;;;;;;;5018386;28;20424;-81
2023/04/30 03:10:37;;;;;;;9.52;4.80;;;;;;;;;;5026879;28;20411;-81
2023/04/30 03:13:04;;;;;;;7.28;4.70;;;;;;;;;;5033004;28;20415;-81
2023/04/30 03:15:32;;;;;;;8.33;4.37;;;;;;;;;;5032480;28;20490;-81
2023/04/30 03:17:58;;;;;;;11.45;5.13;;;;;;;;;;5023869;28;20420;-81
2023/04/30 03:20:25;;;;;;;6.35;4.22;;;;;;;;;;5032249;28;20415;-81
2023/04/30 03:22:51;;;;;;;7.72;4.32;;;;;;;;;;5022641;28;20428;-81
2023/04/30 03:25:17;;;;;;;7.03;4.68;;;;;;;;;;5019832;28;20403;-81
2023/04/30 03:27:44;;;;;;;6.20;4.30;;;;;;;;;;5032623;28;20403;-81
2023/04/30 03:30:11;;;;;;;6.60;4.00;;;;;;;;;;5032387;28;20426;-81
2023/04/30 03:32:38;;;;;;;8.20;4.65;;;;;;;;;;5023401;28;20416;-81
2023/04/30 03:35:05;;;;;;;7.30;4.28;;;;;;;;;;5022394;28;20412;-81
2023/04/30 03:37:31;;;;;;;7.65;5.07;;;;;;;;;;5021870;28;20415;-81
2023/04/30 03:39:58;;;;;;;7.50;4.23;;;;;;;;;;5032018;28;20418;-81
2023/04/30 03:42:24;;;;;;;10.40;4.60;;;;;;;;;;5022961;28;20414;-81
2023/04/30 03:44:50;;;;;;;5.68;4.13;;;;;;;;;;5032489;28;20423;-81
2023/04/30 03:47:18;;;;;;;8.25;4.22;;;;;;;;;;5028126;28;20795;-81
2023/04/30 03:49:44;;;;;;;8.80;5.28;;;;;;;;;;5027354;28;20889;-81
2023/04/30 03:52:11;;;;;;;6.80;4.10;;;;;;;;;;5031337;28;20994;-81
2023/04/30 03:54:37;;;;;;;6.47;4.13;;;;;;;;;;5030891;28;20414;-81
2023/04/30 03:57:04;;;;;;;5.30;4.10;;;;;;;;;;5031568;28;20526;-81
2023/04/30 03:59:30;;;;;;;6.85;3.90;;;;;;;;;;5031987;28;20808;-81
2023/04/30 04:01:57;;;;;;;6.88;3.70;;;;;;;;;;5031413;28;20419;-81
2023/04/30 04:04:24;;;;;;;7.30;4.00;;;;;;;;;;5031742;28;20431;-81
2023/04/30 04:06:51;;;;;;;6.53;4.00;;;;;;;;;;5031187;28;20797;-81
2023/04/30 04:09:17;;;;;;;6.70;3.92;;;;;;;;;;5032229;28;20499;-81
2023/04/30 04:11:43;;;;;;;5.45;4.20;;;;;;;;;;5012622;28;20412;-81
2023/04/30 04:14:10;;;;;;;5.97;4.47;;;;;;;;;;5032377;28;20413;-81
2023/04/30 04:16:36;;;;;;;9.68;4.78;;;;;;;;;;5029888;28;20832;-81
2023/04/30 04:19:03;;;;;;;10.05;4.25;;;;;;;;;;5028955;28;20415;-81
2023/04/30 04:21:31;;;;;;;7.45;4.60;;;;;;;;;;5024306;28;20411;-81
2023/04/30 04:23:57;;;;;;;8.60;4.30;;;;;;;;;;5031539;28;20427;-81
2023/04/30 04:26:24;;;;;;;7.32;4.70;;;;;;;;;;5031731;28;20416;-81
2023/04/30 04:28:50;;;;;;;6.80;4.57;;;;;;;;;;5028540;28;20483;-81
2023/04/30 04:31:17;;;;;;;8.57;4.78;;;;;;;;;;5021691;28;20421;-81
2023/04/30 04:33:44;;;;;;;9.95;5.43;;;;;;;;;;5011740;28;20420;-81
2023/04/30 04:36:10;;;;;;;7.50;4.50;;;;;;;;;;5018207;28;20505;-81
2023/04/30 04:38:38;;;;;;;6.47;4.70;;;;;;;;;;5032089;28;20504;-81
2023/04/30 04:41:04;;;;;;;10.20;5.47;;;;;;;;;;5031284;28;20423;-81
2023/04/30 04:43:30;;;;;;;7.40;5.18;;;;;;;;;;5033787;28;20446;-81
2023/04/30 04:45:57;;;;;;;11.32;5.07;;;;;;;;;;5030958;28;20786;-81
2023/04/30 04:48:23;;;;;;;6.70;5.00;;;;;;;;;;5031575;28;20418;-81
2023/04/30 04:50:49;;;;;;;9.20;4.90;;;;;;;;;;5031134;28;20902;-81
2023/04/30 04:53:16;;;;;;;8.95;4.80;;;;;;;;;;5031178;28;20410;-81
2023/04/30 04:55:43;;;;;;;9.70;5.67;;;;;;;;;;5029839;28;20423;-81
2023/04/30 04:58:10;;;;;;;8.30;5.18;;;;;;;;;;5026266;28;20418;-81
2023/04/30 05:00:36;;;;;;;10.43;5.53;;;;;;;;;;5030983;28;20411;-82
2023/04/30 05:03:02;;;;;;;9.63;4.85;;;;;;;;;;5027627;28;20411;-81
2023/04/30 05:05:29;;;;;;;8.43;5.35;;;;;;;;;;5022417;28;20903;-81
2023/04/30 05:07:55;;;;;;;10.88;5.10;;;;;;;;;;5030057;28;20410;-81
2023/04/30 05:10:21;;;;;;;7.45;5.15;;;;;;;;;;5026313;28;20412;-81
2023/04/30 05:12:49;;;;;;;7.85;5.63;;;;;;;;;;5030882;28;20426;-81
2023/04/30 05:15:15;;;;;;;10.52;5.80;;;;;;;;;;5031015;28;20473;-82
2023/04/30 05:17:42;;;;;;;7.35;5.35;;;;;;;;;;5020934;28;20448;-81
2023/04/30 05:20:08;;;;;;;7.47;6.47;;;;;;;;;;5028667;28;20467;-81
2023/04/30 05:22:35;;;;;;;11.90;6.30;;;;;;;;;;5029335;28;20414;-81
2023/04/30 05:25:01;;;;;;;6.82;5.35;;;;;;;;;;5014690;28;20432;-81
2023/04/30 05:27:27;;;;;;;8.32;5.43;;;;;;;;;;5029515;28;20924;-81
2023/04/30 05:29:55;;;;;;;9.00;6.23;;;;;;;;;;5013845;28;20422;-81
2023/04/30 05:32:22;;;;;;;9.68;7.20;;;;;;;;;;5032039;28;20422;-81
2023/04/30 05:34:48;;;;;;;13.63;6.90;;;;;;;;;;5034257;28;20422;-81
2023/04/30 05:37:16;;;;;;;9.10;7.05;;;;;;;;;;5029537;28;20419;-81
2023/04/30 05:39:42;;;;;;;13.38;6.90;;;;;;;;;;5033634;28;20410;-81
2023/04/30 05:42:09;;;;;;;15.05;8.20;;;;;;;;;;5034572;28;20415;-81
2023/04/30 05:44:35;;;;;;;12.68;7.20;;;;;;;;;;5034568;28;20458;-81
2023/04/30 05:47:03;;;;;;;12.38;7.35;;;;;;;;;;5033164;28;20783;-81
2023/04/30 05:49:29;;;;;;;12.80;7.22;;;;;;;;;;5034521;28;20415;-81
2023/04/30 05:51:55;;;;;;;13.07;8.20;;;;;;;;;;5033833;28;20411;-81
2023/04/30 05:54:21;;;;;;;15.65;8.30;;;;;;;;;;5034364;28;20805;-81
2023/04/30 05:56:48;;;;;;;14.02;8.95;;;;;;;;;;5033783;28;20410;-81
2023/04/30 05:59:14;;;;;;;15.15;9.23;;;;;;;;;;5034159;28;20418;-81
2023/04/30 06:01:41;;;;;;;20.80;8.98;;;;;;;;;;5033712;28;20490;-81
2023/04/30 06:04:09;;;;;;;13.45;8.68;;;;;;;;;;5034447;28;20442;-81
2023/04/30 06:06:35;;;;;;;19.17;9.40;;;;;;;;;;5034132;28;20419;-82
2023/04/30 06:09:02;;;;;;;17.60;9.30;;;;;;;;;;5034226;28;20410;-82
2023/04/30 06:11:29;;;;;;;17.13;9.43;;;;;;;;;;5033693;28;20415;-81
2023/04/30 06:13:55;;;;;;;18.55;8.57;;;;;;;;;;5033701;28;20913;-82
2023/04/30 06:16:22;;;;;;;19.23;8.90;;;;;;;;;;5033529;28;20407;-82
2023/04/30 06:18:48;;;;;;;15.25;8.23;;;;;;;;;;5034050;28;20788;-82
2023/04/30 06:21:16;;;;;;;12.07;7.63;;;;;;;;;;5018376;28;20412;-82
2023/04/30 06:23:42;;;;;;;13.95;7.40;;;;;;;;;;5029454;28;20410;-82
2023/04/30 06:26:09;;;;;;;11.38;6.57;;;;;;;;;;5033585;28;20431;-82
2023/04/30 06:28:35;;;;;;;14.90;6.80;;;;;;;;;;5029395;28;20418;-82
2023/04/30 06:31:02;;;;;;;13.90;6.50;;;;;;;;;;5032573;28;20415;-82
2023/04/30 06:33:29;;;;;;;14.02;5.60;;;;;;;;;;5029265;28;20432;-82
2023/04/30 06:35:55;;;;;;;9.82;5.32;;;;;;;;;;5013039;28;20420;-82
2023/04/30 06:38:24;;;;;;;11.40;5.43;;;;;;;;;;5014278;28;20412;-82
2023/04/30 06:40:50;;;;;;;12.18;4.60;;;;;;;;;;5026588;28;20411;-81
2023/04/30 06:43:17;;;;;;;11.98;5.18;;;;;;;;;;5034021;28;20506;-82
2023/04/30 06:45:44;;;;;;;8.27;3.50;;;;;;;;;;5033951;28;20419;-82
2023/04/30 06:48:10;;;;;;;10.45;3.53;;;;;;;;;;5036678;28;20433;-82
2023/04/30 06:50:43;;;;;;;9.57;3.42;;;;;;;;;;5026937;28;20915;-82
2023/04/30 06:53:10;;;;;;;9.55;3.70;;;;;;;;;;5019855;28;20438;-81
2023/04/30 06:55:37;;;;;;;9.23;3.40;;;;;;;;;;5028605;28;20425;-81
2023/04/30 06:58:04;;;;;;;12.63;3.03;;;;;;;;;;5033630;28;20427;-82
2023/04/30 07:00:31;;;;;;;7.13;3.08;;;;;;;;;;5031895;28;20403;-81
2023/04/30 07:02:59;;;;;;;5.80;3.13;;;;;;;;;;5026313;28;20427;-82
2023/04/30 07:05:25;;;;;;;10.15;3.60;;;;;;;;;;5023430;28;20797;-82
2023/04/30 07:07:52;;;;;;;8.25;3.65;;;;;;;;;;5033382;28;20415;-82
2023/04/30 07:10:18;;;;;;;7.78;3.08;;;;;;;;;;5031586;28;20411;-82
2023/04/30 07:12:46;;;;;;;9.95;3.38;;;;;;;;;;5033612;28;20415;-82
2023/04/30 07:15:12;;;;;;;9.02;3.03;;;;;;;;;;5033602;28;20411;-82
2023/04/30 07:17:40;;;;;;;7.15;2.78;;;;;;;;;;5022964;28;20410;-82
2023/04/30 07:20:07;;;;;;;7.50;2.88;;;;;;;;;;5031425;28;20497;-82
2023/04/30 07:22:34;;;;;;;8.15;3.00;;;;;;;;;;5032957;28;20424;-81
2023/04/30 07:25:00;;;;;;;8.73;2.80;;;;;;;;;;5030838;28;20524;-81
2023/04/30 07:27:27;;;;;;;6.20;2.67;;;;;;;;;;5032819;28;20415;-81
2023/04/30 07:29:54;;;;;;;8.25;3.22;;;;;;;;;;5032960;28;20441;-81
2023/04/30 07:32:21;;;;;;;6.35;3.30;;;;;;;;;;5032639;28;20407;-83
2023/04/30 07:34:47;;;;;;;5.53;2.50;;;;;;;;;;5030804;28;20437;-81
2023/04/30 07:37:14;;;;;;;7.90;3.60;;;;;;;;;;5024352;28;20845;-81
2023/04/30 07:39:40;;;;;;;7.63;3.47;;;;;;;;;;5032550;28;20844;-81
2023/04/30 07:42:06;;;;;;;9.32;3.15;;;;;;;;;;5031229;28;20943;-81
2023/04/30 07:44:33;;;;;;;9.50;3.70;;;;;;;;;;5032813;28;20446;-81
2023/04/30 07:47:00;;;;;;;10.20;3.70;;;;;;;;;;5024854;28;20422;-81
2023/04/30 07:49:28;;;;;;;6.13;3.67;;;;;;;;;;5032194;28;20419;-82
2023/04/30 07:51:55;;;;;;;9.77;3.40;;;;;;;;;;5023781;28;20954;-81
2023/04/30 07:54:22;;;;;;;6.55;3.85;;;;;;;;;;5066865;22;20460;-79
2023/04/30 07:56:49;;;;;;;5.93;3.45;;;;;;;;;;5048666;28;20427;-79
2023/04/30 07:59:16;;;;;;;8.25;3.40;;;;;;;;;;5048872;28;20438;-79
2023/04/30 08:01:43;;;;;;;10.33;4.10;;;;;;;;;;5049584;28;20425;-79
2023/04/30 08:04:11;;;;;;;7.90;3.65;;;;;;;;;;5044117;28;20443;-79
2023/04/30 08:06:37;;;;;;;6.97;3.60;;;;;;;;;;5038227;28;20938;-79
2023/04/30 08:09:04;;;;;;;9.00;3.53;;;;;;;;;;5037117;28;20438;-78
2023/04/30 08:11:30;;;;;;;6.00;3.15;;;;;;;;;;5044032;28;20426;-80
2023/04/30 08:13:57;;;;;;;8.45;3.60;;;;;;;;;;5047204;28;20433;-80
2023/04/30 08:16:23;;;;;;;5.33;3.40;;;;;;;;;;5044161;28;20429;-80
2023/04/30 08:18:50;;;;;;;6.82;4.20;;;;;;;;;;5042203;28;20431;-80
2023/04/30 08:21:17;;;;;;;11.48;3.90;;;;;;;;;;5041852;28;20422;-80
2023/04/30 08:23:44;;;;;;;9.15;3.80;;;;;;;;;;5038735;28;20425;-80
2023/04/30 08:26:11;;;;;;;8.10;3.90;;;;;;;;;;5041992;28;20419;-78
2023/04/30 08:28:37;;;;;;;9.25;3.70;;;;;;;;;;5046004;28;20445;-81
2023/04/30 08:31:04;;;;;;;9.05;3.20;;;;;;;;;;5045438;28;20422;-79
2023/04/30 08:33:31;;;;;;;10.20;3.60;;;;;;;;;;5040116;28;20814;-79
2023/04/30 08:35:58;;;;;;;8.68;3.40;;;;;;;;;;5043653;28;20417;-79
2023/04/30 08:38:26;;;;;;;12.33;3.50;;;;;;;;;;5042173;28;20434;-79
2023/04/30 08:41:05;;;;;;;7.90;3.85;;;;;;;;;;5047551;28;20424;-78
2023/04/30 08:43:34;;;;;;;10.45;3.22;;;;;;;;;;5039636;28;20935;-79
2023/04/30 08:46:01;;;;;;;8.32;3.20;;;;;;;;;;5037037;28;20787;-81
2023/04/30 08:48:28;;;;;;;5.57;2.72;;;;;;;;;;5042442;28;20513;-78
2023/04/30 08:50:54;;;;;;;5.85;3.20;;;;;;;;;;5037198;28;20415;-79
2023/04/30 08:53:21;;;;;;;6.45;3.50;;;;;;;;;;5048667;28;20512;-79
2023/04/30 08:55:49;;;;;;;8.37;3.90;;;;;;;;;;5046248;28;20501;-79
2023/04/30 08:58:15;;;;;;;7.65;3.42;;;;;;;;;;5044793;28;20433;-79
2023/04/30 09:00:41;;;;;;;8.23;3.50;;;;;;;;;;5049581;28;20413;-79
2023/04/30 09:03:08;;;;;;;9.70;3.92;;;;;;;;;;5044540;28;20890;-79
2023/04/30 09:05:34;;;;;;;7.10;3.53;;;;;;;;;;5043906;28;20908;-79
2023/04/30 09:08:00;;;;;;;7.40;3.00;;;;;;;;;;5052247;28;20437;-79
2023/04/30 09:10:27;;;;;;;5.05;3.00;;;;;;;;;;5048702;28;20411;-79
2023/04/30 09:13:01;;;;;;;7.85;3.35;;;;;;;;;;5044791;28;20430;-79
2023/04/30 09:15:28;;;;;;;6.72;3.50;;;;;;;;;;5045812;28;20409;-79
2023/04/30 09:18:08;;;;;;;11.55;3.90;;;;;;;;;;5045141;28;20407;-79
2023/04/30 09:20:34;;;;;;;7.80;3.30;;;;;;;;;;5046273;28;20413;-79
2023/04/30 09:23:08;;;;;;;7.70;3.27;;;;;;;;;;5047672;28;20428;-79
2023/04/30 09:25:38;;;;;;;7.05;3.63;;;;;;;;;;5047006;28;20413;-79
2023/04/30 09:28:22;;;;;;;10.03;3.90;;;;;;;;;;5041647;28;20429;-79
2023/04/30 09:30:50;;;;;;;6.83;3.47;;;;;;;;;;5046540;28;20479;-79
2023/04/30 09:33:17;;;;;;;10.40;4.00;;;;;;;;;;5048492;28;20487;-79
2023/04/30 09:35:43;;;;;;;8.77;3.60;;;;;;;;;;5043578;28;20756;-81
2023/04/30 09:38:27;;;;;;;10.38;3.70;;;;;;;;;;5037240;28;20433;-78
2023/04/30 09:40:53;;;;;;;8.52;3.42;;;;;;;;;;5044577;28;20952;-79
2023/04/30 09:43:20;;;;;;;7.18;3.60;;;;;;;;;;5047651;28;20438;-79
2023/04/30 09:45:48;;;;;;;9.05;3.20;;;;;;;;;;5051140;28;20492;-79
2023/04/30 09:48:17;;;;;;;6.72;2.95;;;;;;;;;;5045960;28;20521;-79
2023/04/30 09:50:43;;;;;;;7.20;3.47;;;;;;;;;;5052482;28;20949;-79
2023/04/30 09:53:13;;;;;;;8.75;3.20;;;;;;;;;;5051511;28;20425;-79
2023/04/30 09:55:42;;;;;;;4.43;3.00;;;;;;;;;;5044221;28;20448;-79
2023/04/30 09:58:10;;;;;;;7.85;3.38;;;;;;;;;;5053356;28;20405;-79
2023/04/30 10:00:37;;;;;;;9.55;3.67;;;;;;;;;;5051459;28;20425;-79
2023/04/30 10:03:06;;;;;;;7.25;3.70;;;;;;;;;;5047299;28;20428;-80
2023/04/30 10:05:34;;;;;;;7.13;3.00;;;;;;;;;;5043769;28;20851;-79
2023/04/30 10:08:00;;;;;;;6.80;3.20;;;;;;;;;;5051767;28;20425;-79
2023/04/30 10:10:27;;;;;;;7.05;3.53;;;;;;;;;;5046901;28;20410;-78
2023/04/30 10:12:56;;;;;;;6.87;2.90;;;;;;;;;;5047371;28;20943;-78
2023/04/30 10:15:25;;;;;;;7.00;3.67;;;;;;;;;;5043485;28;20411;-81
2023/04/30 10:17:54;;;;;;;7.80;3.03;;;;;;;;;;5050390;28;20439;-81
2023/04/30 10:20:21;;;;;;;5.95;3.10;;;;;;;;;;5044795;28;20420;-81
2023/04/30 10:22:50;;;;;;;7.23;3.50;;;;;;;;;;5043321;28;20435;-80
2023/04/30 10:25:17;;;;;;;6.35;2.58;;;;;;;;;;5043186;28;20405;-79
2023/04/30 10:27:43;;;;;;;8.88;3.63;;;;;;;;;;5044725;28;20794;-79
2023/04/30 10:30:10;;;;;;;7.35;3.13;;;;;;;;;;5048173;28;20637;-79
2023/04/30 10:32:38;;;;;;;7.70;3.22;;;;;;;;;;5041769;28;20429;-79
2023/04/30 10:35:10;;;;;;;8.65;2.90;;;;;;;;;;5050651;28;20426;-79
2023/04/30 10:37:41;;;;;;;6.82;3.00;;;;;;;;;;5046912;28;20442;-79
2023/04/30 10:40:09;;;;;;;8.68;3.10;;;;;;;;;;5038094;28;20434;-79
2023/04/30 10:42:36;;;;;;;7.22;3.35;;;;;;;;;;5038801;28;20421;-79
2023/04/30 10:45:03;;;;;;;9.13;3.55;;;;;;;;;;5047618;28;20800;-78
2023/04/30 10:47:30;;;;;;;6.78;3.13;;;;;;;;;;5050501;28;20436;-78
2023/04/30 10:50:02;;;;;;;5.32;3.30;;;;;;;;;;5048998;28;20421;-79
2023/04/30 10:52:29;;;;;;;8.80;3.30;;;;;;;;;;5051276;28;20432;-79
2023/04/30 10:54:55;;;;;;;8.67;3.43;;;;;;;;;;5048669;28;20435;-79
2023/04/30 10:57:23;;;;;;;5.85;3.53;;;;;;;;;;5045778;28;20925;-79
2023/04/30 11:00:04;;;;;;;7.95;3.72;;;;;;;;;;5046205;28;20455;-79
2023/04/30 11:02:38;;;;;;;9.35;4.10;;;;;;;;;;5047149;28;20487;-78
2023/04/30 11:05:12;;;;;;;7.88;3.83;;;;;;;;;;5047790;28;20426;-78
2023/04/30 11:07:47;;;;;;;7.95;4.03;;;;;;;;;;5050512;28;20428;-78
2023/04/30 11:10:13;;;;;;;7.82;4.15;;;;;;;;;;5045611;28;20415;-78
2023/04/30 11:12:47;;;;;;;7.93;4.00;;;;;;;;;;5055717;28;20414;-79
2023/04/30 11:15:15;;;;;;;7.40;3.83;;;;;;;;;;5048519;28;20411;-78
2023/04/30 11:17:43;;;;;;;8.67;3.53;;;;;;;;;;5042546;28;20451;-78
2023/04/30 11:20:12;;;;;;;6.70;3.72;;;;;;;;;;5040333;28;20429;-78
2023/04/30 11:22:38;;;;;;;7.88;3.60;;;;;;;;;;5046796;28;20859;-79
2023/04/30 11:25:05;;;;;;;7.20;3.35;;;;;;;;;;5041270;28;20415;-79
2023/04/30 11:27:33;;;;;;;6.55;3.60;;;;;;;;;;5049865;28;20432;-79
2023/04/30 11:30:01;;;;;;;11.45;4.28;;;;;;;;;;5036289;28;20423;-79
2023/04/30 11:32:35;;;;;;;8.60;4.22;;;;;;;;;;5050329;28;20425;-80
2023/04/30 11:35:02;;;;;;;8.85;3.90;;;;;;;;;;5041226;28;20504;-78
2023/04/30 11:37:31;;;;;;;9.33;4.30;;;;;;;;;;5045227;28;20415;-78
2023/04/30 11:40:00;;;;;;;10.82;3.90;;;;;;;;;;5038619;28;20871;-78
2023/04/30 11:42:26;;;;;;;11.15;3.40;;;;;;;;;;5043097;28;20429;-78
2023/04/30 11:44:52;;;;;;;9.43;4.00;;;;;;;;;;5044557;28;20528;-78
2023/04/30 11:47:20;;;;;;;8.25;3.78;;;;;;;;;;5043630;28;20795;-78
2023/04/30 11:49:52;;;;;;;7.55;3.70;;;;;;;;;;5046750;28;20429;-78
2023/04/30 11:52:20;;;;;;;7.67;4.07;;;;;;;;;;5043593;28;20492;-78
2023/04/30 11:54:47;;;;;;;7.90;3.80;;;;;;;;;;5042077;28;20438;-78
2023/04/30 11:57:13;;;;;;;10.70;3.63;;;;;;;;;;5038385;28;20421;-78
2023/04/30 11:59:40;;;;;;;8.65;4.00;;;;;;;;;;5043850;28;20878;-78
2023/04/30 12:02:07;;;;;;;8.02;3.90;;;;;;;;;;5039664;28;20427;-80
2023/04/30 12:04:36;;;;;;;6.13;3.63;;;;;;;;;;5046232;28;20502;-78
2023/04/30 12:07:02;;;;;;;9.95;3.67;;;;;;;;;;5035687;28;20859;-78
2023/04/30 12:09:29;;;;;;;6.47;4.00;;;;;;;;;;5036081;28;20512;-78
2023/04/30 12:11:55;;;;;;;9.18;3.90;;;;;;;;;;5045476;28;20425;-78
2023/04/30 12:14:24;;;;;;;8.32;3.80;;;;;;;;;;5043795;28;20470;-78
2023/04/30 12:16:51;;;;;;;7.00;3.22;;;;;;;;;;5042657;28;20422;-79
2023/04/30 12:19:18;;;;;;;8.60;3.90;;;;;;;;;;5044985;28;20432;-79
2023/04/30 12:21:47;;;;;;;7.57;3.83;;;;;;;;;;5043479;28;20437;-78
2023/04/30 12:24:13;;;;;;;6.80;3.40;;;;;;;;;;5046400;28;20440;-78
2023/04/30 12:26:41;;;;;;;8.85;3.97;;;;;;;;;;5046880;28;20923;-78
2023/04/30 12:29:08;;;;;;;6.30;3.10;;;;;;;;;;5048713;28;20839;-80
2023/04/30 12:31:37;;;;;;;7.63;3.40;;;;;;;;;;5053175;28;20409;-80
2023/04/30 12:34:04;;;;;;;5.95;2.97;;;;;;;;;;5045327;28;20920;-78
2023/04/30 12:36:32;;;;;;;8.77;3.30;;;;;;;;;;5037953;28;20780;-78
2023/04/30 12:39:06;;;;;;;7.47;4.00;;;;;;;;;;5043960;28;20427;-77
2023/04/30 12:41:35;;;;;;;8.13;3.35;;;;;;;;;;5051230;28;20845;-77
2023/04/30 12:44:18;;;;;;;5.70;3.50;;;;;;;;;;5050480;28;20440;-80
2023/04/30 12:46:45;;;;;;;5.53;3.40;;;;;;;;;;5055719;28;20421;-80
2023/04/30 12:49:11;;;;;;;8.85;3.47;;;;;;;;;;5053019;28;20408;-80
2023/04/30 12:51:39;;;;;;;8.02;3.85;;;;;;;;;;5056356;28;20464;-80
2023/04/30 12:54:06;;;;;;;8.43;3.97;;;;;;;;;;5056180;28;20483;-80
2023/04/30 12:56:33;;;;;;;7.93;3.90;;;;;;;;;;5054035;28;20902;-79
2023/04/30 12:58:59;;;;;;;7.50;3.40;;;;;;;;;;5054916;28;20411;-79
2023/04/30 13:01:27;;;;;;;6.00;3.35;;;;;;;;;;5049618;28;20425;-79
2023/04/30 13:03:53;;;;;;;8.90;3.80;;;;;;;;;;5055130;28;20467;-80
2023/04/30 13:06:20;;;;;;;5.45;3.35;;;;;;;;;;5056695;28;20795;-80
2023/04/30 13:08:47;;;;;;;7.78;4.20;;;;;;;;;;5053014;28;20893;-80
2023/04/30 13:11:15;;;;;;;8.00;3.70;;;;;;;;;;5056267;28;20414;-81
2023/04/30 13:13:41;;;;;;;6.07;3.55;;;;;;;;;;5058695;28;20413;-79
2023/04/30 13:16:07;;;;;;;5.15;3.50;;;;;;;;;;5051219;28;20411;-79
2023/04/30 13:18:34;;;;;;;5.75;3.65;;;;;;;;;;5051658;28;20416;-80
2023/04/30 13:21:00;;;;;;;9.00;3.65;;;;;;;;;;5051967;28;20422;-80
2023/04/30 13:23:28;;;;;;;7.53;3.70;;;;;;;;;;5055918;28;20436;-80
2023/04/30 13:25:54;;;;;;;6.00;3.00;;;;;;;;;;5048040;28;20784;-80
2023/04/30 13:28:22;;;;;;;8.07;3.30;;;;;;;;;;5056521;28;20891;-79
2023/04/30 13:30:50;;;;;;;8.43;3.22;;;;;;;;;;5051409;28;20778;-79
2023/04/30 13:33:16;;;;;;;8.48;3.50;;;;;;;;;;5061436;28;20416;-80
2023/04/30 13:35:43;;;;;;;6.87;3.10;;;;;;;;;;5058976;28;20441;-80
2023/04/30 13:38:09;;;;;;;5.53;3.00;;;;;;;;;;5055671;28;20411;-80
2023/04/30 13:40:36;;;;;;;4.70;3.15;;;;;;;;;;5048088;28;20477;-80
2023/04/30 13:43:03;;;;;;;7.22;3.10;;;;;;;;;;5053907;28;20417;-80
2023/04/30 13:45:30;;;;;;;5.50;3.00;;;;;;;;;;5061690;28;20473;-80
2023/04/30 13:47:57;;;;;;;5.25;2.70;;;;;;;;;;5055082;28;20426;-80
2023/04/30 13:50:25;;;;;;;5.50;2.70;;;;;;;;;;5057867;28;20409;-79
2023/04/30 13:52:51;;;;;;;4.18;2.70;;;;;;;;;;5049871;28;20417;-80
2023/04/30 13:57:46;;;;;;;5.47;3.15;;;;;;;;;;5052875;28;20453;-82
2023/04/30 14:00:13;;;;;;;4.30;2.70;;;;;;;;;;5070009;28;20411;-82
2023/04/30 14:02:41;;;;;;;6.60;2.92;;;;;;;;;;5066692;28;20417;-82
2023/04/30 14:05:07;;;;;;;9.18;3.33;;;;;;;;;;5043409;28;20413;-82
2023/04/30 14:07:34;;;;;;;5.05;3.10;;;;;;;;;;5034212;28;20785;-81
2023/04/30 14:10:00;;;;;;;5.90;3.25;;;;;;;;;;5031505;28;20480;-82
2023/04/30 14:12:29;;;;;;;6.25;3.20;;;;;;;;;;5027728;28;20922;-82
2023/04/30 14:14:56;;;;;;;6.57;3.33;;;;;;;;;;5014483;28;20431;-82
2023/04/30 14:17:22;;;;;;;5.80;2.72;;;;;;;;;;4999612;28;20432;-82
2023/04/30 14:19:50;;;;;;;7.40;3.23;;;;;;;;;;5035017;28;20426;-82
2023/04/30 14:22:17;;;;;;;7.45;3.17;;;;;;;;;;5016096;28;20543;-81
2023/04/30 14:24:43;;;;;;;5.75;3.10;;;;;;;;;;5031721;28;20415;-82
2023/04/30 14:27:09;;;;;;;7.03;4.00;;;;;;;;;;5023577;28;20425;-82
2023/04/30 14:29:36;;;;;;;6.20;3.50;;;;;;;;;;5029355;28;20430;-82
2023/04/30 14:32:03;;;;;;;8.68;4.15;;;;;;;;;;5025375;28;20426;-82
2023/04/30 14:34:29;;;;;;;7.22;3.80;;;;;;;;;;5033394;28;20955;-81
2023/04/30 14:36:58;;;;;;;7.78;3.72;;;;;;;;;;5032564;28;20419;-82
2023/04/30 14:39:24;;;;;;;6.15;3.20;;;;;;;;;;5033461;28;20446;-82
2023/04/30 14:41:50;;;;;;;10.90;3.80;;;;;;;;;;5032470;28;20434;-82
2023/04/30 14:44:17;;;;;;;8.95;3.67;;;;;;;;;;5015736;28;20805;-81